createdAt,value
2023-03-15T00:00:12.473Z,99242.97
2023-03-15T00:02:41.864Z,99242.47
2023-03-15T00:05:15.200Z,99243.53
2023-03-15T00:07:43.355Z,99249.81
2023-03-15T00:10:13.697Z,99244.59
2023-03-15T00:12:42.821Z,99247.22
2023-03-15T00:15:14.726Z,99252.72
2023-03-15T00:17:42.765Z,99251.97
2023-03-15T00:20:12.562Z,99254.87
2023-03-15T00:22:44.188Z,99254.87
2023-03-15T00:25:12.320Z,99252.53
2023-03-15T00:27:40.427Z,99255.16
2023-03-15T00:30:09.998Z,99252.53
2023-03-15T00:32:38.926Z,99256.25
2023-03-15T00:35:07.082Z,99249.47
2023-03-15T00:37:37.730Z,99258.06
2023-03-15T00:40:09.559Z,99246.09
2023-03-15T00:42:40.250Z,99255.75
2023-03-15T00:45:08.818Z,99253.44
2023-03-15T00:47:36.826Z,99247.13
2023-03-15T00:50:06.516Z,99245.63
2023-03-15T00:52:38.909Z,99254.22
2023-03-15T00:55:13.326Z,99256.81
2023-03-15T00:57:42.654Z,99247.44
2023-03-15T01:00:14.434Z,99252.19
2023-03-15T01:02:43.442Z,99252.94
2023-03-15T01:05:11.553Z,99248.50
2023-03-15T01:07:39.540Z,99249.56
2023-03-15T01:10:09.115Z,99245.41
2023-03-15T01:12:37.221Z,99242.78
2023-03-15T01:15:07.850Z,99246.19
2023-03-15T01:17:36.020Z,99236.81
2023-03-15T01:20:05.706Z,99237.56
2023-03-15T01:22:34.047Z,99237.56
2023-03-15T01:25:02.308Z,99231.87
2023-03-15T01:27:30.367Z,99237.09
2023-03-15T01:29:59.896Z,99242.31
2023-03-15T01:32:28.199Z,99246.00
2023-03-15T01:34:56.383Z,99240.00
2023-03-15T01:37:24.805Z,99243.41
2023-03-15T01:39:53.427Z,99242.62
2023-03-15T01:42:21.542Z,99241.84
2023-03-15T01:45:01.626Z,99238.47
2023-03-15T01:47:30.057Z,99232.50
2023-03-15T01:50:11.632Z,99228.03
2023-03-15T01:52:43.001Z,99227.28
2023-03-15T01:55:19.619Z,99225.41
2023-03-15T01:57:56.194Z,99222.81
2023-03-15T02:00:25.110Z,99223.09
2023-03-15T02:03:14.611Z,99232.50
2023-03-15T02:05:47.816Z,99224.66
2023-03-15T02:08:19.040Z,99227.28
2023-03-15T02:10:51.335Z,99221.25
2023-03-15T02:13:23.772Z,99219.44
2023-03-15T02:15:53.733Z,99216.84
2023-03-15T02:18:23.509Z,99212.38
2023-03-15T02:21:03.537Z,99220.50
2023-03-15T02:23:34.411Z,99228.31
2023-03-15T02:26:17.590Z,99227.56
2023-03-15T02:28:46.626Z,99216.03
2023-03-15T02:31:15.355Z,99222.06
2023-03-15T02:33:46.249Z,99213.72
2023-03-15T02:36:23.085Z,99220.50
2023-03-15T02:38:52.268Z,99223.09
2023-03-15T02:41:42.586Z,99226.47
2023-03-15T02:44:23.504Z,99222.06
2023-03-15T02:46:55.304Z,99226.47
2023-03-15T02:49:26.634Z,99227.28
2023-03-15T02:51:55.038Z,99221.25
2023-03-15T02:54:22.808Z,99221.25
2023-03-15T02:56:51.550Z,99222.06
2023-03-15T02:59:20.029Z,99225.72
2023-03-15T03:01:48.015Z,99226.47
2023-03-15T03:04:15.927Z,99233.53
2023-03-15T03:06:44.527Z,99230.94
2023-03-15T03:09:13.246Z,99242.94
2023-03-15T03:11:43.609Z,99227.28
2023-03-15T03:14:14.269Z,99218.66
2023-03-15T03:16:42.844Z,99223.09
2023-03-15T03:19:14.828Z,99222.06
2023-03-15T03:21:46.263Z,99217.59
2023-03-15T03:24:16.194Z,99222.06
2023-03-15T03:26:46.288Z,99226.47
2023-03-15T03:29:17.770Z,99227.28
2023-03-15T03:31:45.906Z,99227.28
2023-03-15T03:34:15.776Z,99222.06
2023-03-15T03:36:44.151Z,99221.25
2023-03-15T03:39:12.717Z,99222.06
2023-03-15T03:41:41.427Z,99216.84
2023-03-15T03:44:12.095Z,99220.50
2023-03-15T03:46:40.714Z,99210.81
2023-03-15T03:49:08.566Z,99210.81
2023-03-15T03:51:37.785Z,99204.84
2023-03-15T03:54:05.952Z,99211.09
2023-03-15T03:56:33.937Z,99209.28
2023-03-15T03:59:02.260Z,99216.84
2023-03-15T04:01:31.000Z,99211.59
2023-03-15T04:04:00.343Z,99204.06
2023-03-15T04:06:28.966Z,99215.28
2023-03-15T04:08:56.989Z,99212.66
2023-03-15T04:11:26.964Z,99212.66
2023-03-15T04:13:55.325Z,99215.28
2023-03-15T04:16:24.846Z,99210.06
2023-03-15T04:18:56.411Z,99218.94
2023-03-15T04:21:24.528Z,99218.94
2023-03-15T04:23:54.024Z,99205.12
2023-03-15T04:26:26.577Z,99212.19
2023-03-15T04:28:57.275Z,99216.31
2023-03-15T04:31:29.258Z,99221.53
2023-03-15T04:33:57.475Z,99227.06
2023-03-15T04:36:25.657Z,99223.41
2023-03-15T04:39:04.361Z,99227.84
2023-03-15T04:41:39.532Z,99233.06
2023-03-15T04:44:07.735Z,99229.66
2023-03-15T04:46:36.885Z,99216.63
2023-03-15T04:49:06.159Z,99210.63
2023-03-15T04:51:35.118Z,99215.84
2023-03-15T04:54:04.155Z,99215.84
2023-03-15T04:56:32.314Z,99224.78
2023-03-15T04:59:01.353Z,99230.00
2023-03-15T05:01:31.757Z,99245.66
2023-03-15T05:04:00.228Z,99255.31
2023-03-15T05:06:28.881Z,99258.69
2023-03-15T05:08:57.979Z,99253.47
2023-03-15T05:11:26.246Z,99250.88
2023-03-15T05:13:55.130Z,99259.75
2023-03-15T05:16:23.338Z,99256.09
2023-03-15T05:18:51.353Z,99251.94
2023-03-15T05:21:19.714Z,99253.47
2023-03-15T05:23:48.180Z,99263.13
2023-03-15T05:26:16.110Z,99261.31
2023-03-15T05:28:45.429Z,99267.59
2023-03-15T05:31:14.405Z,99270.19
2023-03-15T05:33:47.039Z,99270.19
2023-03-15T05:36:15.783Z,99263.41
2023-03-15T05:38:45.773Z,99270.97
2023-03-15T05:41:18.046Z,99272.81
2023-03-15T05:43:46.948Z,99270.97
2023-03-15T05:46:15.087Z,99275.41
2023-03-15T05:48:44.067Z,99269.13
2023-03-15T05:51:13.395Z,99271.75
2023-03-15T05:53:41.988Z,99272.03
2023-03-15T05:56:10.659Z,99274.38
2023-03-15T05:58:39.368Z,99277.75
2023-03-15T06:01:07.362Z,99271.75
2023-03-15T06:03:36.219Z,99273.28
2023-03-15T06:06:05.232Z,99274.03
2023-03-15T06:08:33.556Z,99280.06
2023-03-15T06:11:02.199Z,99278.22
2023-03-15T06:13:31.634Z,99276.87
2023-03-15T06:15:59.718Z,99272.41
2023-03-15T06:18:28.093Z,99274.25
2023-03-15T06:20:55.984Z,99271.31
2023-03-15T06:23:24.036Z,99270.28
2023-03-15T06:25:52.155Z,99277.81
2023-03-15T06:28:20.632Z,99278.56
2023-03-15T06:30:49.732Z,99285.34
2023-03-15T06:33:18.478Z,99289.50
2023-03-15T06:35:47.778Z,99279.56
2023-03-15T06:38:15.662Z,99288.91
2023-03-15T06:40:44.382Z,99296.16
2023-03-15T06:43:18.380Z,99293.25
2023-03-15T06:45:47.067Z,99300.81
2023-03-15T06:48:16.196Z,99304.38
2023-03-15T06:50:47.580Z,99307.16
2023-03-15T06:53:16.475Z,99305.63
2023-03-15T06:55:45.080Z,99310.53
2023-03-15T06:58:14.053Z,99312.84
2023-03-15T07:00:44.412Z,99312.84
2023-03-15T07:03:12.329Z,99315.16
2023-03-15T07:05:40.595Z,99311.78
2023-03-15T07:08:08.803Z,99313.03
2023-03-15T07:10:37.027Z,99320.56
2023-03-15T07:13:07.018Z,99319.25
2023-03-15T07:15:37.196Z,99318.97
2023-03-15T07:18:05.160Z,99332.50
2023-03-15T07:20:33.525Z,99338.97
2023-03-15T07:23:02.632Z,99340.53
2023-03-15T07:25:30.479Z,99350.69
2023-03-15T07:27:58.264Z,99350.69
2023-03-15T07:30:26.379Z,99350.38
2023-03-15T07:32:54.410Z,99346.41
2023-03-15T07:35:22.832Z,99350.56
2023-03-15T07:37:51.374Z,99357.31
2023-03-15T07:40:20.716Z,99352.87
2023-03-15T07:42:48.617Z,99358.88
2023-03-15T07:45:16.651Z,99358.28
2023-03-15T07:47:44.828Z,99365.03
2023-03-15T07:50:14.619Z,99375.97
2023-03-15T07:52:44.654Z,99386.75
2023-03-15T07:55:12.731Z,99384.41
2023-03-15T07:57:40.731Z,99389.13
2023-03-15T08:00:12.131Z,99392.84
2023-03-15T08:02:40.855Z,99391.56
2023-03-15T08:05:10.306Z,99405.72
2023-03-15T08:07:38.251Z,99408.63
2023-03-15T08:10:06.926Z,99407.34
2023-03-15T08:12:35.806Z,99397.22
2023-03-15T08:15:03.952Z,99399.50
2023-03-15T08:17:31.832Z,99418.59
2023-03-15T08:20:03.024Z,99430.09
2023-03-15T08:22:31.973Z,99425.94
2023-03-15T08:25:00.020Z,99419.66
2023-03-15T08:27:27.738Z,99429.50
2023-03-15T08:29:58.389Z,99433.19
2023-03-15T08:32:26.688Z,99445.47
2023-03-15T08:34:54.558Z,99433.69
2023-03-15T08:37:22.392Z,99441.03
2023-03-15T08:39:58.066Z,99455.16
2023-03-15T08:42:26.825Z,99448.97
2023-03-15T08:44:59.485Z,99445.28
2023-03-15T08:47:27.252Z,99429.91
2023-03-15T08:49:56.611Z,99434.38
2023-03-15T08:52:24.547Z,99432.53
2023-03-15T08:54:52.379Z,99432.03
2023-03-15T08:57:20.508Z,99446.16
2023-03-15T08:59:49.281Z,99445.88
2023-03-15T09:02:17.054Z,99456.59
2023-03-15T09:04:45.210Z,99451.97
2023-03-15T09:07:13.015Z,99460.06
2023-03-15T09:09:40.967Z,99474.66
2023-03-15T09:12:09.308Z,99495.84
2023-03-15T09:14:37.378Z,99502.62
2023-03-15T09:17:05.231Z,99500.31
2023-03-15T09:19:33.494Z,99487.72
2023-03-15T09:22:16.085Z,99495.31
2023-03-15T09:24:51.841Z,99499.25
2023-03-15T09:27:19.658Z,99510.97
2023-03-15T09:29:47.896Z,99522.97
2023-03-15T09:32:15.991Z,99527.41
2023-03-15T09:34:43.696Z,99519.47
2023-03-15T09:37:11.498Z,99535.16
2023-03-15T09:39:39.713Z,99528.41
2023-03-15T09:43:02.753Z,99537.84
2023-03-15T09:46:04.046Z,99535.25
2023-03-15T09:48:35.663Z,99548.88
2023-03-15T09:51:06.665Z,99556.78
2023-03-15T09:54:14.488Z,99561.63
2023-03-15T09:57:04.745Z,99561.44
2023-03-15T09:59:45.680Z,99559.66
2023-03-15T10:02:23.868Z,99567.50
2023-03-15T10:05:01.443Z,99565.19
2023-03-15T10:07:29.308Z,99560.72
2023-03-15T10:09:59.096Z,99563.91
2023-03-15T10:12:40.746Z,99549.88
2023-03-15T10:15:22.316Z,99563.22
2023-03-15T10:18:00.867Z,99570.75
2023-03-15T10:20:36.902Z,99576.75
2023-03-15T10:23:13.428Z,99584.09
2023-03-15T10:25:41.726Z,99594.34
2023-03-15T10:28:34.784Z,99584.19
2023-03-15T10:31:22.876Z,99590.19
2023-03-15T10:33:55.078Z,99588.63
2023-03-15T10:36:25.006Z,99610.56
2023-03-15T10:38:52.883Z,99587.66
2023-03-15T10:41:42.172Z,99600.72
2023-03-15T10:44:15.340Z,99614.31
2023-03-15T10:46:59.872Z,99618.47
2023-03-15T10:49:35.511Z,99622.91
2023-03-15T10:52:04.884Z,99616.66
2023-03-15T10:54:35.306Z,99630.53
2023-03-15T10:57:14.542Z,99618.25
2023-03-15T11:00:09.322Z,99629.28
2023-03-15T11:02:37.759Z,99625.88
2023-03-15T11:05:08.915Z,99624.62
2023-03-15T11:07:36.878Z,99627.53
2023-03-15T11:10:22.231Z,99639.31
2023-03-15T11:12:49.921Z,99657.59
2023-03-15T11:15:19.527Z,99662.81
2023-03-15T11:17:49.836Z,99664.41
2023-03-15T11:20:36.610Z,99668.38
2023-03-15T11:23:22.437Z,99672.03
2023-03-15T11:25:50.802Z,99684.56
2023-03-15T11:28:22.044Z,99693.44
2023-03-15T11:30:50.245Z,99681.00
2023-03-15T11:33:43.691Z,99673.16
2023-03-15T11:36:17.494Z,99665.34
2023-03-15T11:38:46.673Z,99672.66
2023-03-15T11:41:59.554Z,99675.78
2023-03-15T11:44:41.831Z,99679.69
2023-03-15T11:47:33.165Z,99683.06
2023-03-15T11:50:06.328Z,99685.47
2023-03-15T11:52:40.201Z,99692.59
2023-03-15T11:55:17.946Z,99697.81
2023-03-15T11:57:48.047Z,99710.38
2023-03-15T12:00:16.424Z,99704.37
2023-03-15T12:02:51.071Z,99703.59
2023-03-15T12:05:43.895Z,99703.03
2023-03-15T12:08:19.841Z,99717.13
2023-03-15T12:10:49.846Z,99708.53
2023-03-15T12:13:27.233Z,99707.19
2023-03-15T12:15:55.265Z,99716.84
2023-03-15T12:18:31.254Z,99722.91
2023-03-15T12:21:19.515Z,99700.75
2023-03-15T12:24:05.337Z,99704.44
2023-03-15T12:26:45.695Z,99707.03
2023-03-15T12:29:28.152Z,99729.22
2023-03-15T12:32:08.799Z,99718.03
2023-03-15T12:34:58.298Z,99723.31
2023-03-15T12:37:44.071Z,99735.78
2023-03-15T12:40:16.441Z,99736.63
2023-03-15T12:42:44.571Z,99734.56
2023-03-15T12:45:15.494Z,99729.84
2023-03-15T12:48:06.599Z,99728.03
2023-03-15T12:50:48.049Z,99735.09
2023-03-15T12:53:30.958Z,99735.09
2023-03-15T12:56:19.196Z,99737.16
2023-03-15T12:58:53.415Z,99734.13
2023-03-15T13:01:25.766Z,99734.37
2023-03-15T13:03:58.644Z,99738.34
2023-03-15T13:06:30.423Z,99730.28
2023-03-15T13:09:11.767Z,99733.66
2023-03-15T13:11:51.796Z,99743.59
2023-03-15T13:14:31.799Z,99741.53
2023-03-15T13:17:25.126Z,99743.88
2023-03-15T13:20:32.549Z,99746.25
2023-03-15T13:23:18.488Z,99762.72
2023-03-15T13:26:21.335Z,99747.78
2023-03-15T13:28:56.711Z,99762.94
2023-03-15T13:31:26.844Z,99757.22
2023-03-15T13:34:04.021Z,99755.38
2023-03-15T13:36:53.614Z,99754.34
2023-03-15T13:39:26.046Z,99750.47
2023-03-15T13:41:58.837Z,99767.94
2023-03-15T13:44:31.108Z,99755.44
2023-03-15T13:47:00.106Z,99769.25
2023-03-15T13:49:34.067Z,99770.31
2023-03-15T13:52:12.231Z,99763.56
2023-03-15T13:54:42.188Z,99771.91
2023-03-15T13:57:14.542Z,99764.59
2023-03-15T13:59:57.616Z,99761.50
2023-03-15T14:02:37.931Z,99771.69
2023-03-15T14:05:13.574Z,99770.88
2023-03-15T14:07:48.571Z,99776.09
2023-03-15T14:10:19.903Z,99767.03
2023-03-15T14:12:48.784Z,99774.06
2023-03-15T14:15:34.511Z,99772.78
2023-03-15T14:18:09.251Z,99786.88
2023-03-15T14:20:47.272Z,99770.44
2023-03-15T14:23:19.606Z,99776.44
2023-03-15T14:25:58.256Z,99776.72
2023-03-15T14:28:26.517Z,99776.97
2023-03-15T14:30:57.644Z,99780.91
2023-03-15T14:33:32.206Z,99776.72
2023-03-15T14:36:03.432Z,99779.84
2023-03-15T14:38:36.022Z,99783.50
2023-03-15T14:41:33.256Z,99783.78
2023-03-15T14:44:03.282Z,99780.41
2023-03-15T14:46:32.570Z,99791.09
2023-03-15T14:49:01.188Z,99781.72
2023-03-15T14:51:29.765Z,99786.94
2023-03-15T14:53:59.496Z,99795.53
2023-03-15T14:56:27.594Z,99795.53
2023-03-15T14:58:55.682Z,99808.78
2023-03-15T15:01:26.797Z,99810.13
2023-03-15T15:03:59.847Z,99813.50
2023-03-15T15:06:31.947Z,99799.19
2023-03-15T15:09:01.561Z,99809.34
2023-03-15T15:11:29.628Z,99813.78
2023-03-15T15:13:59.791Z,99803.34
2023-03-15T15:16:27.986Z,99827.06
2023-03-15T15:18:56.469Z,99829.16
2023-03-15T15:21:31.219Z,99833.87
2023-03-15T15:24:10.849Z,99822.62
2023-03-15T15:26:38.514Z,99823.97
2023-03-15T15:29:06.515Z,99846.63
2023-03-15T15:31:34.555Z,99845.06
2023-03-15T15:34:02.555Z,99851.59
2023-03-15T15:36:36.772Z,99855.25
2023-03-15T15:39:22.306Z,99841.97
2023-03-15T15:41:50.910Z,99859.69
2023-03-15T15:44:21.329Z,99863.06
2023-03-15T15:46:49.144Z,99850.31
2023-03-15T15:49:21.139Z,99864.66
2023-03-15T15:51:50.011Z,99862.81
2023-03-15T15:54:26.271Z,99862.81
2023-03-15T15:56:57.980Z,99856.84
2023-03-15T15:59:27.203Z,99868.03
2023-03-15T16:02:01.108Z,99870.13
2023-03-15T16:04:30.260Z,99879.75
2023-03-15T16:07:04.234Z,99873.50
2023-03-15T16:09:39.826Z,99872.47
2023-03-15T16:12:16.664Z,99881.06
2023-03-15T16:14:44.751Z,99886.03
2023-03-15T16:17:17.396Z,99890.47
2023-03-15T16:19:46.939Z,99895.69
2023-03-15T16:22:15.620Z,99891.50
2023-03-15T16:24:46.924Z,99882.91
2023-03-15T16:27:17.615Z,99902.44
2023-03-15T16:29:49.011Z,99899.81
2023-03-15T16:32:32.866Z,99911.31
2023-03-15T16:35:15.727Z,99918.59
2023-03-15T16:37:46.548Z,99936.56
2023-03-15T16:40:34.645Z,99929.81
2023-03-15T16:43:06.505Z,99931.91
2023-03-15T16:45:34.662Z,99942.31
2023-03-15T16:48:05.413Z,99945.44
2023-03-15T16:50:38.516Z,99955.03
2023-03-15T16:53:10.805Z,99963.94
2023-03-15T16:55:38.928Z,99960.00
2023-03-15T16:58:19.633Z,99962.09
2023-03-15T17:00:48.548Z,99975.63
2023-03-15T17:03:17.199Z,99967.56
2023-03-15T17:05:47.880Z,99981.66
2023-03-15T17:08:20.287Z,99985.03
2023-03-15T17:10:49.462Z,99993.63
2023-03-15T17:13:25.070Z,99987.66
2023-03-15T17:15:53.229Z,100002.50
2023-03-15T17:18:22.914Z,100000.94
2023-03-15T17:20:54.035Z,100006.41
2023-03-15T17:23:22.424Z,100015.00
2023-03-15T17:25:51.291Z,100020.75
2023-03-15T17:28:19.456Z,100019.94
2023-03-15T17:30:49.777Z,100022.28
2023-03-15T17:33:19.737Z,100026.97
2023-03-15T17:35:54.056Z,100041.06
2023-03-15T17:38:27.122Z,100034.28
2023-03-15T17:40:55.377Z,100043.13
2023-03-15T17:43:23.124Z,100049.91
2023-03-15T17:45:52.396Z,100059.53
2023-03-15T17:48:24.256Z,100056.94
2023-03-15T17:50:53.475Z,100059.03
2023-03-15T17:53:22.035Z,100069.16
2023-03-15T17:55:50.224Z,100073.59
2023-03-15T17:58:22.599Z,100087.94
2023-03-15T18:00:53.729Z,100096.78
2023-03-15T18:03:23.950Z,100106.69
2023-03-15T18:05:52.521Z,100104.59
2023-03-15T18:08:22.535Z,100103.00
2023-03-15T18:10:52.367Z,100115.00
2023-03-15T18:13:21.730Z,100109.78
2023-03-15T18:15:52.617Z,100112.66
2023-03-15T18:18:21.320Z,100118.13
2023-03-15T18:20:49.724Z,100117.34
2023-03-15T18:23:18.488Z,100113.97
2023-03-15T18:25:48.496Z,100111.37
2023-03-15T18:28:17.021Z,100129.84
2023-03-15T18:30:45.563Z,100125.94
2023-03-15T18:33:15.896Z,100125.69
2023-03-15T18:35:44.035Z,100129.34
2023-03-15T18:38:12.686Z,100132.47
2023-03-15T18:40:41.387Z,100148.06
2023-03-15T18:43:14.030Z,100121.78
2023-03-15T18:45:42.893Z,100130.88
2023-03-15T18:48:12.228Z,100131.94
2023-03-15T18:50:40.686Z,100135.84
2023-03-15T18:53:09.028Z,100148.31
2023-03-15T18:55:37.088Z,100143.91
2023-03-15T18:58:09.504Z,100148.31
2023-03-15T19:00:38.138Z,100151.72
2023-03-15T19:03:06.878Z,100145.47
2023-03-15T19:05:38.031Z,100150.94
2023-03-15T19:08:06.945Z,100157.41
2023-03-15T19:10:35.319Z,100159.25
2023-03-15T19:13:04.834Z,100160.84
2023-03-15T19:15:34.088Z,100165.22
2023-03-15T19:18:22.882Z,100170.44
2023-03-15T19:20:53.100Z,100166.03
2023-03-15T19:23:21.856Z,100176.44
2023-03-15T19:25:50.198Z,100176.44
2023-03-15T19:28:18.718Z,100173.31
2023-03-15T19:30:46.855Z,100176.19
2023-03-15T19:33:14.891Z,100179.81
2023-03-15T19:35:43.385Z,100189.44
2023-03-15T19:38:11.464Z,100186.84
2023-03-15T19:40:39.569Z,100195.94
2023-03-15T19:43:10.236Z,100197.50
2023-03-15T19:45:38.170Z,100193.88
2023-03-15T19:48:09.816Z,100187.09
2023-03-15T19:50:38.510Z,100201.94
2023-03-15T19:53:08.324Z,100198.03
2023-03-15T19:55:36.802Z,100194.91
2023-03-15T19:58:05.321Z,100191.78
2023-03-15T20:00:33.397Z,100199.84
2023-03-15T20:03:02.035Z,100200.63
2023-03-15T20:05:30.788Z,100196.72
2023-03-15T20:07:59.487Z,100205.81
2023-03-15T20:10:28.233Z,100205.81
2023-03-15T20:12:59.461Z,100208.94
2023-03-15T20:15:29.509Z,100205.06
2023-03-15T20:17:58.223Z,100213.87
2023-03-15T20:20:27.034Z,100209.22
2023-03-15T20:22:55.475Z,100210.25
2023-03-15T20:25:24.586Z,100208.94
2023-03-15T20:27:52.804Z,100219.63
2023-03-15T20:30:23.737Z,100220.66
2023-03-15T20:32:52.227Z,100224.28
2023-03-15T20:35:21.394Z,100225.88
2023-03-15T20:37:49.586Z,100238.38
2023-03-15T20:40:19.282Z,100227.97
2023-03-15T20:42:47.874Z,100234.19
2023-03-15T20:45:16.455Z,100233.69
2023-03-15T20:47:44.733Z,100236.28
2023-03-15T20:50:20.477Z,100246.69
2023-03-15T20:52:49.139Z,100246.16
2023-03-15T20:55:17.660Z,100241.22
2023-03-15T20:57:45.891Z,100247.72
2023-03-15T21:00:18.454Z,100242.00
2023-03-15T21:02:48.055Z,100239.38
2023-03-15T21:05:17.533Z,100254.22
2023-03-15T21:07:46.276Z,100261.25
2023-03-15T21:10:15.094Z,100256.56
2023-03-15T21:12:44.333Z,100255.00
2023-03-15T21:15:17.971Z,100249.78
2023-03-15T21:17:50.549Z,100264.37
2023-03-15T21:20:19.020Z,100260.22
2023-03-15T21:22:47.396Z,100263.34
2023-03-15T21:25:15.508Z,100261.78
2023-03-15T21:27:44.080Z,100270.09
2023-03-15T21:30:16.421Z,100278.94
2023-03-15T21:32:45.053Z,100284.13
2023-03-15T21:35:13.881Z,100284.13
2023-03-15T21:37:42.281Z,100287.28
2023-03-15T21:40:12.788Z,100289.34
2023-03-15T21:42:42.773Z,100288.31
2023-03-15T21:45:12.139Z,100290.91
2023-03-15T21:47:40.594Z,100289.34
2023-03-15T21:50:09.293Z,100288.31
2023-03-15T21:52:37.236Z,100288.56
2023-03-15T21:55:06.288Z,100297.69
2023-03-15T21:57:34.303Z,100292.50
2023-03-15T22:00:02.476Z,100286.47
2023-03-15T22:02:39.638Z,100297.16
2023-03-15T22:05:08.399Z,100301.84
2023-03-15T22:07:36.175Z,100300.81
2023-03-15T22:10:04.918Z,100302.63
2023-03-15T22:12:33.413Z,100302.63
2023-03-15T22:15:05.781Z,100295.88
2023-03-15T22:17:34.968Z,100294.03
2023-03-15T22:20:08.120Z,100299.25
2023-03-15T22:22:36.546Z,100302.09
2023-03-15T22:25:04.526Z,100298.47
2023-03-15T22:27:32.349Z,100306.53
2023-03-15T22:30:00.743Z,100304.19
2023-03-15T22:32:28.687Z,100302.09
2023-03-15T22:34:57.052Z,100308.09
2023-03-15T22:37:25.305Z,100310.16
2023-03-15T22:39:53.201Z,100312.75
2023-03-15T22:42:21.092Z,100307.03
2023-03-15T22:44:49.250Z,100306.50
2023-03-15T22:47:17.321Z,100307.03
2023-03-15T22:49:45.092Z,100308.59
2023-03-15T22:52:13.440Z,100305.47
2023-03-15T22:54:44.345Z,100317.44
2023-03-15T22:57:12.214Z,100312.22
2023-03-15T22:59:40.545Z,100324.22
2023-03-15T23:02:09.109Z,100320.84
2023-03-15T23:04:37.045Z,100321.09
2023-03-15T23:07:05.369Z,100320.56
2023-03-15T23:09:33.208Z,100325.78
2023-03-15T23:12:01.750Z,100329.44
2023-03-15T23:14:29.958Z,100329.44
2023-03-15T23:16:57.819Z,100341.91
2023-03-15T23:19:25.777Z,100322.66
2023-03-15T23:21:53.945Z,100332.28
2023-03-15T23:24:24.782Z,100337.22
2023-03-15T23:26:56.533Z,100333.56
2023-03-15T23:29:24.700Z,100335.13
2023-03-15T23:31:53.124Z,100339.56
2023-03-15T23:34:23.576Z,100343.19
2023-03-15T23:36:52.948Z,100341.34
2023-03-15T23:39:22.159Z,100338.75
2023-03-15T23:41:50.143Z,100343.72
2023-03-15T23:44:18.750Z,100339.56
2023-03-15T23:46:46.754Z,100344.75
2023-03-15T23:49:14.642Z,100338.50
2023-03-15T23:51:44.019Z,100342.41
2023-03-15T23:54:12.236Z,100353.09
2023-03-15T23:56:40.454Z,100340.34
2023-03-15T23:59:08.636Z,100347.38
